Reading, PA

3:30 PM EST on December 19, 2014 (GMT -0500)
Greenfields | Change Station
CLOSE
Current Station
Personal Weather Station
Location: Reading, PA
Elevation: 250 ft
Nearby Weather Stations

Elev 250 ft 40.37 °N, 75.96 °W | Updated 40 seconds ago

Scattered Clouds
Scattered Clouds
38.9 °F
Feels Like 39 °F
N
2.0
Wind Variable Wind from NNW
Gusts 5.0 mph

Today
High -- | Low -- °F
--% Chance of Precip.
Yesterday
High -- | Low -- °F
Precip. -- in
7:22 AM 4:39 PM
Waning Crescent, 6% visible
Pressure 30.11 in
Visibility 10.0 miles
Clouds Scattered Clouds 4200 ft
Windchill 39 °F
Dew Point 26 °F
Humidity 59%
Rainfall 0.00 in
Snow Depth Not available.
UV 1 out of 12
Pollen .10 out of 12
Air Quality Not available.
Flu Activity Not available.
METAR KRDG 191954Z 31009KT 10SM SCT042 04/M06 A3008 RMK AO2 WSHFT 1903 SLP194 T00441061

More Conditions Fewer Conditions

Pressure 30.11 in
Visibility 10.0 miles
Clouds Scattered Clouds 4200 ft
Windchill 39 °F
Dew Point 26 °F
Humidity 59%
Rainfall 0.00 in
Snow Depth Not available.
UV 1 out of 12
Pollen .10 out of 12
Air Quality Not available.
Flu Activity Not available.
METAR KRDG 191954Z 31009KT 10SM SCT042 04/M06 A3008 RMK AO2 WSHFT 1903 SLP194 T00441061

More Conditions Fewer Conditions

10-Day Weather Forecast

Almanac

Astronomy

Dec. 19, 2014 Rise Set
Actual Time
Civil Twilight
Nautical Twilight
Astronomical Twilight
Moon
Length of Visible Light
Length of Day
Tomorrow will be .
, % of the Moon is Illuminated

Today's Extremes

State Highs State Lows

Community

WunderPhotos

Upload Photos

1,779,047 photos uploaded!

WunderBlogs® & News

Nearby

Air Quality

  Air Quality AQ Index Pollutant
Not available.

Snow Depth

Station Depth Elevation

Earthquake Activity

City Distance Mag. Time & Date
Minimum magnitude displayed is 2.5.

Coastal Water Temperatures

Place Temperature

Nearby Weather Stations